Time;durP1;ratioP1;P1;durP2;ratioP2;P2;SDS_P1;SDS_P2;PMS_P1;PMS_P2;Temp;Humidity;BMP_temperature;BMP_pressure;BME280_temperature;BME280_humidity;BME280_pressure;Samples;Min_cycle;Max_cycle;Signal;HPM_P1;HPM_P2
2022/04/10 00:00:46;;;;;;;3.20;2.90;;;;;;;-1.77;100.00;93105.50;2101497;28;20059;-82
2022/04/10 00:01:49;;;;;;;5.30;3.08;;;;;;;-1.78;100.00;93106.63;2097635;28;20020;-81
2022/04/10 00:02:50;;;;;;;5.45;3.25;;;;;;;-1.80;100.00;93111.44;2101096;28;20027;-81
2022/04/10 00:03:51;;;;;;;3.42;2.78;;;;;;;-1.68;100.00;93109.81;2111908;28;20495;-82
2022/04/10 00:04:52;;;;;;;4.45;3.00;;;;;;;-1.83;100.00;93101.63;2103894;28;20554;-83
2022/04/10 00:05:53;;;;;;;3.90;3.50;;;;;;;-1.64;100.00;93111.44;2092184;28;20039;-83
2022/04/10 00:06:54;;;;;;;3.25;2.95;;;;;;;-1.73;100.00;93112.69;2089797;28;20029;-81
2022/04/10 00:07:55;;;;;;;3.60;2.78;;;;;;;-1.76;100.00;93108.88;2097372;28;20024;-83
2022/04/10 00:08:56;;;;;;;4.43;2.65;;;;;;;-1.75;100.00;93104.44;2093594;28;20040;-82
2022/04/10 00:09:58;;;;;;;3.92;3.20;;;;;;;-1.82;100.00;93111.00;2095281;28;20051;-83
2022/04/10 00:10:59;;;;;;;5.80;3.28;;;;;;;-1.85;100.00;93097.81;2103466;28;20512;-82
2022/04/10 00:12:00;;;;;;;3.28;2.85;;;;;;;-1.83;100.00;93108.72;2095412;28;20026;-83
2022/04/10 00:13:01;;;;;;;3.60;3.15;;;;;;;-1.89;100.00;93113.47;2097749;28;20126;-81
2022/04/10 00:14:02;;;;;;;4.60;3.42;;;;;;;-1.92;100.00;93102.91;2096412;28;20558;-82
2022/04/10 00:15:04;;;;;;;3.10;2.80;;;;;;;-1.92;100.00;93116.00;2097799;28;20044;-83
2022/04/10 00:16:05;;;;;;;4.03;3.30;;;;;;;-1.90;100.00;93113.78;2094426;28;20020;-83
2022/04/10 00:17:06;;;;;;;3.63;2.55;;;;;;;-1.95;100.00;93109.56;2089593;28;20050;-83
2022/04/10 00:18:07;;;;;;;4.70;3.15;;;;;;;-1.97;100.00;93109.16;2097713;28;20655;-83
2022/04/10 00:19:08;;;;;;;3.00;2.80;;;;;;;-1.91;100.00;93112.28;2103425;28;20031;-80
2022/04/10 00:20:11;;;;;;;5.05;3.17;;;;;;;-1.95;100.00;93111.41;2105557;28;20049;-82
2022/04/10 00:21:12;;;;;;;5.38;2.90;;;;;;;-1.90;100.00;93105.94;2105608;28;20020;-81
2022/04/10 00:22:13;;;;;;;5.28;3.00;;;;;;;-1.89;100.00;93103.00;2102875;28;20111;-82
2022/04/10 00:23:14;;;;;;;3.95;3.03;;;;;;;-1.99;100.00;93113.19;2096553;28;20391;-81
2022/04/10 00:24:15;;;;;;;4.10;3.35;;;;;;;-1.95;100.00;93108.81;2094724;28;20021;-83
2022/04/10 00:25:18;;;;;;;4.53;3.00;;;;;;;-1.93;100.00;93111.84;2099869;28;20024;-82
2022/04/10 00:26:19;;;;;;;6.45;3.05;;;;;;;-1.92;100.00;93111.50;2104712;28;20020;-81
2022/04/10 00:27:20;;;;;;;5.65;2.90;;;;;;;-1.89;100.00;93115.31;2112314;28;20070;-80
2022/04/10 00:28:21;;;;;;;3.97;2.72;;;;;;;-1.89;100.00;93112.69;2100115;28;20530;-82
2022/04/10 00:29:22;;;;;;;5.18;2.85;;;;;;;-1.96;100.00;93110.66;2094892;28;20031;-81
2022/04/10 00:30:23;;;;;;;3.63;3.28;;;;;;;-1.94;100.00;93108.47;2088388;28;20024;-82
2022/04/10 00:31:25;;;;;;;8.73;3.10;;;;;;;-1.93;100.00;93110.00;2088537;28;20036;-80
2022/04/10 00:32:27;;;;;;;5.70;3.33;;;;;;;-1.85;100.00;93111.66;2097583;28;20126;-83
2022/04/10 00:33:28;;;;;;;4.22;3.10;;;;;;;-1.71;100.00;93115.72;2097656;28;20031;-81
2022/04/10 00:34:29;;;;;;;3.78;3.30;;;;;;;-1.63;100.00;93112.19;2095569;28;20103;-81
2022/04/10 00:35:30;;;;;;;3.50;3.10;;;;;;;-1.64;100.00;93108.81;2095407;28;20017;-82
2022/04/10 00:36:31;;;;;;;4.38;3.20;;;;;;;-1.71;100.00;93113.91;2088153;28;20041;-82
2022/04/10 00:37:33;;;;;;;3.63;3.33;;;;;;;-1.81;100.00;93104.66;2088395;28;20028;-81
2022/04/10 00:38:34;;;;;;;5.25;3.28;;;;;;;-1.78;100.00;93109.22;2096194;28;20028;-83
2022/04/10 00:39:35;;;;;;;3.30;3.00;;;;;;;-1.80;100.00;93098.34;2089751;28;20016;-83
2022/04/10 00:40:36;;;;;;;3.95;3.10;;;;;;;-1.83;100.00;93099.00;2091216;28;20453;-80
2022/04/10 00:41:37;;;;;;;5.68;2.80;;;;;;;-1.88;100.00;93101.88;2095407;28;20024;-83
2022/04/10 00:42:43;;;;;;;5.32;3.45;;;;;;;-1.86;100.00;93098.91;2104128;28;20024;-82
2022/04/10 00:44:03;;;;;;;6.15;3.50;;;;;;;-1.74;100.00;93092.84;2103592;28;20020;-83
2022/04/10 00:45:06;;;;;;;4.20;3.10;;;;;;;-1.72;100.00;93091.41;2108626;28;20042;-83
2022/04/10 00:46:07;;;;;;;4.75;3.00;;;;;;;-1.72;100.00;93104.50;2108221;27;20027;-81
2022/04/10 00:47:10;;;;;;;4.55;3.35;;;;;;;-1.76;100.00;93101.03;2096511;28;20404;-80
2022/04/10 00:48:11;;;;;;;5.32;3.47;;;;;;;-1.76;100.00;93101.03;2090515;28;20064;-82
2022/04/10 00:49:12;;;;;;;6.60;3.25;;;;;;;-1.88;100.00;93101.88;2105197;28;20031;-81
2022/04/10 00:50:14;;;;;;;6.55;3.42;;;;;;;-1.89;100.00;93100.38;2096635;28;20080;-85
2022/04/10 00:52:36;;;;;;;3.85;3.08;;;;;;;-1.87;100.00;93102.63;2101890;28;20643;-80
2022/04/10 00:53:38;;;;;;;4.90;3.03;;;;;;;-1.78;100.00;93095.38;2105907;28;20024;-82
2022/04/10 00:54:39;;;;;;;3.45;3.03;;;;;;;-1.76;100.00;93103.66;2095691;28;20027;-81
2022/04/10 00:55:40;;;;;;;4.28;2.95;;;;;;;-1.78;100.00;93106.63;2095527;28;20085;-83
2022/04/10 00:56:41;;;;;;;5.70;3.42;;;;;;;-1.84;100.00;93107.22;2101837;28;20028;-81
2022/04/10 00:57:46;;;;;;;3.10;2.90;;;;;;;-1.88;100.00;93112.38;2100829;28;20035;-81
2022/04/10 00:58:48;;;;;;;3.05;2.78;;;;;;;-1.86;100.00;93107.53;2099018;28;20024;-81
2022/04/10 00:59:49;;;;;;;4.15;3.17;;;;;;;-1.87;100.00;93110.50;2099292;28;20028;-83
2022/04/10 01:00:50;;;;;;;5.03;3.20;;;;;;;-1.91;100.00;93118.25;2089047;28;20096;-82
2022/04/10 01:01:52;;;;;;;6.00;3.67;;;;;;;-1.89;100.00;93110.84;2097547;28;20033;-82
2022/04/10 01:02:53;;;;;;;4.70;3.78;;;;;;;-1.86;100.00;93112.00;2104071;28;20020;-83
2022/04/10 01:03:54;;;;;;;3.55;3.17;;;;;;;-1.84;100.00;93115.06;2097385;28;20028;-83
2022/04/10 01:04:55;;;;;;;4.25;3.10;;;;;;;-1.82;100.00;93110.25;2086468;28;20413;-84
2022/04/10 01:06:02;;;;;;;5.07;3.60;;;;;;;-1.86;100.00;93114.63;2087258;28;20402;-82
2022/04/10 01:07:14;;;;;;;5.72;3.70;;;;;;;-1.85;100.00;93116.16;2107044;27;20024;-80
2022/04/10 01:08:23;;;;;;;5.10;3.15;;;;;;;-1.83;100.00;93119.22;2114226;28;20407;-83
2022/04/10 01:09:24;;;;;;;3.50;3.20;;;;;;;-1.86;100.00;93123.25;2104851;28;20501;-80
2022/04/10 01:10:25;;;;;;;6.78;3.55;;;;;;;-1.99;100.00;93118.44;2105909;28;20043;-82
2022/04/10 01:11:26;;;;;;;3.35;3.05;;;;;;;-2.01;100.00;93121.38;2101112;28;20016;-82
2022/04/10 01:12:28;;;;;;;5.20;3.13;;;;;;;-1.97;100.00;93122.25;2102876;28;20082;-81
2022/04/10 01:13:29;;;;;;;5.90;3.50;;;;;;;-2.00;100.00;93119.53;2102590;28;20016;-83
2022/04/10 01:14:30;;;;;;;4.18;3.30;;;;;;;-1.96;100.00;93121.13;2097478;28;20020;-83
2022/04/10 01:15:32;;;;;;;4.85;3.38;;;;;;;-1.89;100.00;93117.91;2089337;28;20087;-82
2022/04/10 01:16:34;;;;;;;4.72;3.35;;;;;;;-1.87;100.00;93111.25;2097555;28;20024;-85
2022/04/10 01:17:36;;;;;;;4.55;3.15;;;;;;;-1.99;100.00;93116.56;2089630;28;20013;-83
2022/04/10 01:18:37;;;;;;;3.80;3.40;;;;;;;-2.04;100.00;93114.97;2099512;28;20110;-83
2022/04/10 01:19:39;;;;;;;4.70;3.28;;;;;;;-2.05;100.00;93110.81;2095868;28;20108;-82
2022/04/10 01:20:41;;;;;;;3.67;3.25;;;;;;;-2.03;100.00;93110.47;2089505;28;20062;-84
2022/04/10 01:21:46;;;;;;;5.10;3.33;;;;;;;-2.08;100.00;93108.09;2099924;28;20028;-83
2022/04/10 01:22:48;;;;;;;5.18;3.28;;;;;;;-2.01;100.00;93104.91;2104374;28;20488;-83
2022/04/10 01:23:50;;;;;;;4.60;3.75;;;;;;;-2.06;100.00;93111.16;2105324;28;20041;-82
2022/04/10 01:24:51;;;;;;;7.10;3.80;;;;;;;-2.05;100.00;93108.19;2097448;28;20013;-82
2022/04/10 01:25:53;;;;;;;4.13;3.60;;;;;;;-2.01;100.00;93108.28;2093345;28;20055;-82
2022/04/10 01:26:54;;;;;;;4.68;3.85;;;;;;;-2.04;100.00;93114.97;2103781;28;20020;-84
2022/04/10 01:27:56;;;;;;;5.70;3.53;;;;;;;-2.12;100.00;93108.00;2097267;28;20111;-82
2022/04/10 01:29:00;;;;;;;4.97;3.92;;;;;;;-2.16;100.00;93106.41;2089793;28;20075;-81
2022/04/10 01:30:02;;;;;;;5.85;3.47;;;;;;;-2.11;100.00;93109.56;2094274;28;20021;-81
2022/04/10 01:31:03;;;;;;;6.78;4.07;;;;;;;-2.14;100.00;93109.47;2099211;28;20107;-83
2022/04/10 01:32:04;;;;;;;5.22;3.80;;;;;;;-2.18;100.00;93106.00;2090313;28;20033;-81
2022/04/10 01:33:05;;;;;;;4.38;3.55;;;;;;;-2.18;100.00;93106.75;2089000;28;20028;-84
2022/04/10 01:34:08;;;;;;;5.28;3.75;;;;;;;-2.25;100.00;93106.56;2091088;28;20024;-84
2022/04/10 01:35:10;;;;;;;4.35;3.30;;;;;;;-2.24;100.00;93107.31;2111902;27;20019;-82
2022/04/10 01:36:11;;;;;;;4.55;3.70;;;;;;;-2.15;100.00;93110.53;2101620;28;20103;-83
2022/04/10 01:37:15;;;;;;;6.70;3.90;;;;;;;-2.06;100.00;93105.94;2097254;28;20368;-82
2022/04/10 01:38:17;;;;;;;4.60;3.70;;;;;;;-1.95;100.00;93104.31;2101129;28;20020;-81
2022/04/10 01:39:19;;;;;;;4.30;3.53;;;;;;;-2.05;100.00;93108.19;2097460;28;20020;-83
2022/04/10 01:40:21;;;;;;;4.57;4.15;;;;;;;-1.97;100.00;93108.38;2097299;28;20047;-81
2022/04/10 01:41:26;;;;;;;4.47;3.60;;;;;;;-1.96;100.00;93115.91;2089132;28;20028;-83
2022/04/10 01:42:28;;;;;;;6.50;3.45;;;;;;;-1.84;100.00;93105.34;2102780;28;20091;-81
2022/04/10 01:43:31;;;;;;;7.35;4.30;;;;;;;-1.79;100.00;93112.19;2112796;28;20051;-83
2022/04/10 01:44:40;;;;;;;5.93;3.92;;;;;;;-1.69;100.00;93106.44;2099994;28;20020;-81
2022/04/10 01:45:40;;;;;;;5.13;3.95;;;;;;;-1.79;100.00;93110.34;2104647;28;20027;-83
2022/04/10 01:46:41;;;;;;;6.03;4.80;;;;;;;-1.87;100.00;93113.13;2094632;28;20027;-81
2022/04/10 01:47:42;;;;;;;6.22;4.32;;;;;;;-1.98;100.00;93115.47;2097048;28;20844;-82
2022/04/10 01:48:44;;;;;;;6.13;4.10;;;;;;;-1.94;100.00;93118.16;2094822;28;20105;-84
2022/04/10 01:49:45;;;;;;;7.55;4.18;;;;;;;-1.87;100.00;93113.13;2097398;28;20557;-84
2022/04/10 01:50:46;;;;;;;4.38;3.90;;;;;;;-1.82;100.00;93118.88;2107521;28;20068;-81
2022/04/10 01:51:47;;;;;;;4.57;4.03;;;;;;;-1.90;100.00;93113.78;2095458;28;20073;-81
2022/04/10 01:52:48;;;;;;;7.70;4.25;;;;;;;-2.04;100.00;93116.81;2095561;28;20021;-82
2022/04/10 01:53:49;;;;;;;5.75;3.92;;;;;;;-1.95;100.00;93116.66;2097602;28;20078;-83
2022/04/10 01:54:53;;;;;;;5.95;4.55;;;;;;;-1.87;100.00;93119.13;2092855;28;20140;-82
2022/04/10 01:55:54;;;;;;;5.68;4.70;;;;;;;-1.87;100.00;93120.97;2102386;28;20518;-82
2022/04/10 01:56:55;;;;;;;5.07;4.20;;;;;;;-1.91;100.00;93113.03;2113415;28;20034;-82
2022/04/10 01:57:56;;;;;;;6.57;4.15;;;;;;;-1.98;100.00;93120.69;2111429;28;20032;-82
2022/04/10 01:58:57;;;;;;;6.60;4.30;;;;;;;-2.03;100.00;93113.09;2095753;28;20017;-81
2022/04/10 01:59:58;;;;;;;5.50;3.88;;;;;;;-2.07;100.00;93115.63;2096442;28;20091;-83
2022/04/10 02:01:01;;;;;;;8.15;4.20;;;;;;;-2.07;100.00;93117.47;2095866;28;20020;-83
2022/04/10 02:02:03;;;;;;;8.35;4.30;;;;;;;-2.08;100.00;93114.09;2096889;28;20510;-81
2022/04/10 02:03:04;;;;;;;4.57;3.67;;;;;;;-2.09;100.00;93114.44;2104142;28;20023;-81
2022/04/10 02:04:05;;;;;;;7.35;4.30;;;;;;;-2.15;100.00;93113.16;2104573;28;20476;-81
2022/04/10 02:05:06;;;;;;;4.75;4.10;;;;;;;-2.21;100.00;93117.88;2099236;28;20538;-81
2022/04/10 02:06:09;;;;;;;4.53;4.13;;;;;;;-2.27;100.00;93111.38;2094850;28;20051;-81
2022/04/10 02:07:10;;;;;;;8.52;4.40;;;;;;;-2.15;100.00;93113.94;2095777;28;20103;-81
2022/04/10 02:08:13;;;;;;;5.35;4.38;;;;;;;-2.18;100.00;93108.59;2094871;28;20632;-81
2022/04/10 02:09:14;;;;;;;6.57;4.10;;;;;;;-2.20;100.00;93110.78;2097243;28;20450;-81
2022/04/10 02:10:14;;;;;;;5.43;4.05;;;;;;;-2.13;100.00;93116.22;2097109;28;20020;-81
2022/04/10 02:12:35;;;;;;;7.43;3.90;;;;;;;-2.18;100.00;93106.75;2126244;27;20171;-81
2022/04/10 02:13:36;;;;;;;4.65;3.58;;;;;;;-2.05;100.00;93112.69;2120889;28;20035;-81
2022/04/10 02:14:37;;;;;;;6.75;4.68;;;;;;;-2.03;100.00;93111.22;2104237;28;20400;-81
2022/04/10 02:15:39;;;;;;;7.90;4.45;;;;;;;-2.05;100.00;93110.06;2102187;28;20027;-82
2022/04/10 02:16:40;;;;;;;5.22;4.10;;;;;;;-2.10;100.00;93105.06;2102364;28;20107;-82
2022/04/10 02:17:41;;;;;;;6.85;4.80;;;;;;;-2.15;100.00;93113.16;2110906;28;20016;-81
2022/04/10 02:18:42;;;;;;;7.60;4.28;;;;;;;-2.19;100.00;93107.09;2110607;28;20650;-83
2022/04/10 02:19:43;;;;;;;6.93;3.92;;;;;;;-2.15;100.00;93108.69;2110516;28;20016;-80
2022/04/10 02:20:44;;;;;;;12.50;4.72;;;;;;;-2.25;100.00;93101.31;2102134;28;20021;-83
2022/04/10 02:21:45;;;;;;;4.93;4.22;;;;;;;-2.23;100.00;93104.38;2110389;27;20026;-82
2022/04/10 02:22:46;;;;;;;6.30;3.92;;;;;;;-2.22;100.00;93102.50;2121016;27;20043;-82
2022/04/10 02:23:47;;;;;;;7.63;4.82;;;;;;;-2.28;100.00;93096.78;2112674;28;20016;-81
2022/04/10 02:24:50;;;;;;;6.13;4.55;;;;;;;-2.09;100.00;93101.34;2104907;28;20103;-83
2022/04/10 02:25:51;;;;;;;4.55;4.10;;;;;;;-2.13;100.00;93105.75;2107213;28;20074;-82
2022/04/10 02:26:52;;;;;;;7.13;4.75;;;;;;;-2.18;100.00;93103.38;2118795;28;20011;-81
2022/04/10 02:27:53;;;;;;;5.00;3.72;;;;;;;-2.14;100.00;93102.38;2108358;28;20443;-81
2022/04/10 02:28:54;;;;;;;5.18;4.45;;;;;;;-2.08;100.00;93098.41;2118965;27;20019;-83
2022/04/10 02:29:55;;;;;;;7.97;4.28;;;;;;;-2.12;100.00;93100.16;2118968;28;20492;-81
2022/04/10 02:30:56;;;;;;;4.80;3.50;;;;;;;-2.24;100.00;93110.69;2117881;28;20016;-80
2022/04/10 02:31:57;;;;;;;6.78;4.18;;;;;;;-2.25;100.00;93103.19;2116708;28;20031;-80
2022/04/10 02:32:58;;;;;;;6.88;3.80;;;;;;;-2.07;100.00;93099.91;2119433;28;20045;-80
2022/04/10 02:34:00;;;;;;;4.70;4.18;;;;;;;-2.13;100.00;93095.28;2107815;28;20478;-82
2022/04/10 02:35:01;;;;;;;5.57;3.97;;;;;;;-2.13;100.00;93103.13;2102770;28;20114;-81
2022/04/10 02:36:02;;;;;;;5.35;4.25;;;;;;;-2.25;100.00;93101.31;2102917;28;20028;-83
2022/04/10 02:37:03;;;;;;;6.05;4.38;;;;;;;-2.30;100.00;93094.47;2110270;28;20016;-83
2022/04/10 02:38:04;;;;;;;4.45;3.70;;;;;;;-2.31;100.00;93103.44;2104070;28;20066;-81
2022/04/10 02:39:05;;;;;;;4.60;4.20;;;;;;;-2.30;100.00;93101.56;2112205;28;20015;-82
2022/04/10 02:40:07;;;;;;;5.03;4.00;;;;;;;-2.42;100.00;93096.38;2116350;28;20065;-81
2022/04/10 02:41:08;;;;;;;5.93;3.95;;;;;;;-2.37;100.00;93104.00;2116829;27;20019;-82
2022/04/10 02:42:09;;;;;;;5.63;4.53;;;;;;;-2.38;100.00;93105.09;2118656;28;20654;-82
2022/04/10 02:43:10;;;;;;;5.85;4.13;;;;;;;-2.39;100.00;93108.81;2108598;28;20023;-80
2022/04/10 02:44:11;;;;;;;5.75;4.18;;;;;;;-2.38;100.00;93105.09;2106252;28;20029;-81
2022/04/10 02:45:19;;;;;;;6.45;4.25;;;;;;;-2.35;100.00;93105.19;2112307;28;20020;-83
2022/04/10 02:46:20;;;;;;;6.55;4.28;;;;;;;-2.22;100.00;93105.91;2125067;27;20026;-82
2022/04/10 02:47:21;;;;;;;4.70;4.25;;;;;;;-2.22;100.00;93102.50;2112273;28;20016;-82
2022/04/10 02:48:22;;;;;;;6.78;5.25;;;;;;;-2.21;100.00;93106.66;2111653;28;20039;-80
2022/04/10 02:49:23;;;;;;;5.25;4.13;;;;;;;-2.24;100.00;93108.06;2104127;28;20373;-82
2022/04/10 02:50:24;;;;;;;4.45;4.05;;;;;;;-2.31;100.00;93105.28;2101923;28;20028;-83
2022/04/10 02:51:25;;;;;;;6.53;4.43;;;;;;;-2.19;100.00;93101.84;2103858;28;20043;-80
2022/04/10 02:52:26;;;;;;;4.53;4.18;;;;;;;-2.33;100.00;93113.47;2120903;27;20030;-81
2022/04/10 02:53:27;;;;;;;7.10;3.88;;;;;;;-2.35;100.00;93107.06;2122089;27;20490;-82
2022/04/10 02:54:28;;;;;;;9.40;4.55;;;;;;;-2.44;100.00;93109.81;2104108;28;20028;-82
2022/04/10 02:55:29;;;;;;;7.50;4.25;;;;;;;-2.41;100.00;93105.78;2098824;28;20108;-84
2022/04/10 02:56:30;;;;;;;6.55;4.25;;;;;;;-2.40;100.00;93110.66;2111295;28;20028;-80
2022/04/10 02:57:31;;;;;;;9.02;4.28;;;;;;;-2.37;100.00;93110.00;2102061;28;20028;-83
2022/04/10 02:58:32;;;;;;;6.03;4.20;;;;;;;-2.36;100.00;93108.91;2098790;28;20287;-82
2022/04/10 02:59:34;;;;;;;5.65;4.13;;;;;;;-2.37;100.00;93114.47;2099232;28;20089;-80
2022/04/10 03:00:35;;;;;;;8.18;4.75;;;;;;;-2.42;100.00;93112.09;2109838;28;20015;-82
2022/04/10 03:01:36;;;;;;;6.30;4.22;;;;;;;-2.39;100.00;93109.56;2110117;28;20032;-82
2022/04/10 03:02:41;;;;;;;7.03;4.15;;;;;;;-2.41;100.00;93111.78;2118776;27;20023;-83
2022/04/10 03:03:42;;;;;;;5.75;4.32;;;;;;;-2.30;100.00;93118.03;2108794;28;20024;-82
2022/04/10 03:04:42;;;;;;;7.22;4.85;;;;;;;-2.35;100.00;93115.66;2104636;28;20031;-83
2022/04/10 03:05:43;;;;;;;6.13;4.30;;;;;;;-2.43;100.00;93113.94;2105315;28;20032;-80
2022/04/10 03:06:45;;;;;;;7.25;4.70;;;;;;;-2.42;100.00;93114.69;2104953;27;20024;-82
2022/04/10 03:07:46;;;;;;;7.30;4.07;;;;;;;-2.40;100.00;93115.16;2120718;28;20022;-81
2022/04/10 03:08:47;;;;;;;5.00;4.00;;;;;;;-2.49;100.00;93120.53;2110288;28;20054;-82
2022/04/10 03:09:47;;;;;;;4.80;4.20;;;;;;;-2.45;100.00;93116.16;2112526;27;20062;-81
2022/04/10 03:10:48;;;;;;;6.57;4.35;;;;;;;-2.47;100.00;93118.31;2120906;28;20030;-82
2022/04/10 03:11:49;;;;;;;4.32;3.92;;;;;;;-2.50;100.00;93118.22;2119576;28;20033;-82
2022/04/10 03:12:50;;;;;;;7.60;4.25;;;;;;;-2.44;100.00;93115.03;2103774;28;20097;-82
2022/04/10 03:13:51;;;;;;;5.78;4.28;;;;;;;-2.50;100.00;93116.38;2112440;28;20020;-83
2022/04/10 03:14:52;;;;;;;6.30;4.38;;;;;;;-2.47;100.00;93114.94;2112402;28;20034;-82
2022/04/10 03:15:53;;;;;;;5.82;4.22;;;;;;;-2.56;100.00;93108.00;2112225;28;20020;-83
2022/04/10 03:16:56;;;;;;;6.93;4.57;;;;;;;-2.43;100.00;93111.31;2120878;28;20047;-80
2022/04/10 03:17:57;;;;;;;6.68;4.40;;;;;;;-2.54;100.00;93107.69;2112832;28;20024;-82
2022/04/10 03:18:58;;;;;;;5.95;4.32;;;;;;;-2.47;100.00;93099.25;2112669;28;20030;-83
2022/04/10 03:19:59;;;;;;;8.07;4.80;;;;;;;-2.51;100.00;93114.09;2112625;28;20024;-81
2022/04/10 03:21:00;;;;;;;4.95;4.28;;;;;;;-2.57;100.00;93103.88;2112646;28;20114;-82
2022/04/10 03:22:01;;;;;;;6.43;4.70;;;;;;;-2.56;100.00;93105.38;2104249;28;20611;-83
2022/04/10 03:23:08;;;;;;;6.75;4.40;;;;;;;-2.58;100.00;93122.53;2104357;28;20035;-81
2022/04/10 03:24:09;;;;;;;4.72;4.00;;;;;;;-2.66;100.00;93116.31;2099452;28;20020;-81
2022/04/10 03:25:10;;;;;;;6.22;4.57;;;;;;;-2.68;100.00;93115.88;2098676;28;20020;-81
2022/04/10 03:26:13;;;;;;;7.20;4.97;;;;;;;-2.72;100.00;93115.03;2098574;28;20537;-81
2022/04/10 03:27:14;;;;;;;5.70;4.43;;;;;;;-2.70;100.00;93117.31;2104940;28;20028;-82
2022/04/10 03:28:15;;;;;;;5.80;4.97;;;;;;;-2.67;100.00;93109.56;2098616;28;20468;-81
2022/04/10 03:29:16;;;;;;;7.78;4.85;;;;;;;-2.71;100.00;93113.19;2105097;28;20443;-82
2022/04/10 03:30:17;;;;;;;6.93;4.95;;;;;;;-2.69;100.00;93108.38;2107154;28;20024;-82
2022/04/10 03:31:20;;;;;;;5.15;4.30;;;;;;;-2.65;100.00;93117.09;2115266;27;20057;-82
2022/04/10 03:32:21;;;;;;;8.95;5.15;;;;;;;-2.69;100.00;93122.22;2107065;28;20016;-82
2022/04/10 03:33:22;;;;;;;6.32;4.93;;;;;;;-2.72;100.00;93122.09;2098638;28;20456;-81
2022/04/10 03:34:23;;;;;;;6.55;4.93;;;;;;;-2.67;100.00;93120.03;2106936;28;20032;-82
2022/04/10 03:35:24;;;;;;;8.77;5.85;;;;;;;-2.66;100.00;93123.41;2107012;28;20155;-82
2022/04/10 03:36:25;;;;;;;10.60;5.10;;;;;;;-2.65;100.00;93122.31;2098113;28;20043;-81
2022/04/10 03:37:26;;;;;;;5.72;4.40;;;;;;;-2.72;100.00;93122.09;2107009;28;20020;-83
2022/04/10 03:38:27;;;;;;;9.68;5.10;;;;;;;-2.70;100.00;93127.78;2098826;28;20025;-82
2022/04/10 03:39:28;;;;;;;7.18;5.28;;;;;;;-2.68;100.00;93128.97;2098666;28;20473;-82
2022/04/10 03:40:30;;;;;;;8.88;5.13;;;;;;;-2.72;100.00;93128.13;2098572;28;20020;-80
2022/04/10 03:41:30;;;;;;;8.13;4.80;;;;;;;-2.72;100.00;93138.59;2098639;28;20413;-82
2022/04/10 03:42:41;;;;;;;11.07;5.20;;;;;;;-2.71;100.00;93134.13;2106967;28;20028;-82
2022/04/10 03:43:42;;;;;;;6.70;5.07;;;;;;;-2.76;100.00;93131.75;2099771;28;20021;-84
2022/04/10 03:44:43;;;;;;;6.18;5.03;;;;;;;-2.81;100.00;93136.09;2090403;28;20036;-83
2022/04/10 03:45:44;;;;;;;6.97;4.97;;;;;;;-2.86;100.00;93133.69;2090206;28;20017;-81
2022/04/10 03:46:45;;;;;;;6.57;5.20;;;;;;;-2.85;100.00;93130.00;2104794;28;20059;-83
2022/04/10 03:47:49;;;;;;;5.50;4.95;;;;;;;-2.86;100.00;93138.16;2115193;28;20110;-82
2022/04/10 03:48:50;;;;;;;7.13;5.43;;;;;;;-2.73;100.00;93144.88;2107396;27;20053;-82
2022/04/10 03:49:51;;;;;;;5.03;4.40;;;;;;;-2.80;100.00;93142.09;2106939;28;20441;-81
2022/04/10 03:50:52;;;;;;;7.80;4.85;;;;;;;-2.84;100.00;93149.06;2098663;28;20035;-80
2022/04/10 03:51:53;;;;;;;6.97;5.07;;;;;;;-2.81;100.00;93140.56;2098330;28;20089;-81
2022/04/10 03:52:56;;;;;;;8.07;5.05;;;;;;;-2.84;100.00;93149.84;2106871;28;20128;-81
2022/04/10 03:53:57;;;;;;;8.70;4.47;;;;;;;-2.78;100.00;93142.50;2107195;28;20069;-82
2022/04/10 03:54:58;;;;;;;5.75;5.15;;;;;;;-2.76;100.00;93152.66;2098572;28;20629;-81
2022/04/10 03:56:00;;;;;;;7.30;5.10;;;;;;;-2.84;100.00;93146.47;2098351;28;20749;-80
2022/04/10 03:57:01;;;;;;;6.55;5.15;;;;;;;-2.86;100.00;93152.00;2098820;28;20859;-82
2022/04/10 03:58:02;;;;;;;7.22;5.10;;;;;;;-2.83;100.00;93147.97;2098625;28;20024;-80
2022/04/10 03:59:03;;;;;;;7.07;5.40;;;;;;;-2.82;100.00;93150.25;2098374;28;20029;-80
2022/04/10 04:00:05;;;;;;;7.88;6.07;;;;;;;-2.83;100.00;93145.38;2106451;28;20057;-82
2022/04/10 04:01:06;;;;;;;6.57;5.00;;;;;;;-2.74;100.00;93150.47;2106685;28;20024;-80
2022/04/10 04:02:07;;;;;;;7.38;5.63;;;;;;;-2.80;100.00;93152.56;2098425;28;20584;-84
2022/04/10 04:03:08;;;;;;;7.88;5.10;;;;;;;-2.78;100.00;93161.56;2090370;28;20472;-81
2022/04/10 04:04:09;;;;;;;6.70;5.75;;;;;;;-2.73;100.00;93151.97;2099072;28;20485;-83
2022/04/10 04:05:10;;;;;;;7.35;5.85;;;;;;;-2.76;100.00;93156.03;2115110;28;20804;-81
2022/04/10 04:06:11;;;;;;;9.57;5.10;;;;;;;-2.71;100.00;93158.41;2106600;28;20054;-83
2022/04/10 04:07:12;;;;;;;7.68;6.00;;;;;;;-2.59;100.00;93158.41;2090211;28;20021;-80
2022/04/10 04:08:14;;;;;;;9.93;5.88;;;;;;;-2.58;100.00;93156.53;2090320;28;20025;-82
2022/04/10 04:09:15;;;;;;;7.05;5.53;;;;;;;-2.65;100.00;93159.69;2090503;28;20053;-79
2022/04/10 04:10:16;;;;;;;10.07;6.35;;;;;;;-2.59;100.00;93153.16;2090143;28;20091;-82
2022/04/10 04:11:17;;;;;;;8.73;5.78;;;;;;;-2.56;100.00;93155.09;2098142;28;20111;-80
2022/04/10 04:12:19;;;;;;;8.88;6.07;;;;;;;-2.53;100.00;93158.91;2097733;28;20074;-82
2022/04/10 04:13:20;;;;;;;6.03;5.40;;;;;;;-2.57;100.00;93161.44;2106847;28;20016;-82
2022/04/10 04:14:21;;;;;;;8.50;6.00;;;;;;;-2.69;100.00;93155.47;2106776;28;20047;-83
2022/04/10 04:15:22;;;;;;;8.55;5.97;;;;;;;-2.71;100.00;93165.50;2090385;28;20025;-81
2022/04/10 04:16:23;;;;;;;8.82;5.60;;;;;;;-2.70;100.00;93162.56;2090056;28;20032;-82
2022/04/10 04:17:24;;;;;;;5.97;5.28;;;;;;;-2.68;100.00;93164.81;2098272;28;20020;-83
2022/04/10 04:18:25;;;;;;;8.52;5.30;;;;;;;-2.76;100.00;93168.34;2098318;28;20020;-81
2022/04/10 04:19:26;;;;;;;7.80;5.70;;;;;;;-2.79;100.00;93167.16;2106665;28;20020;-83
2022/04/10 04:20:27;;;;;;;6.55;5.88;;;;;;;-2.74;100.00;93171.38;2098260;28;20417;-82
2022/04/10 04:21:28;;;;;;;8.10;5.70;;;;;;;-2.76;100.00;93171.72;2089875;28;20021;-83
2022/04/10 04:22:29;;;;;;;10.60;5.97;;;;;;;-2.78;100.00;93174.66;2106753;28;20016;-81
2022/04/10 04:23:30;;;;;;;8.68;6.20;;;;;;;-2.75;100.00;93167.25;2115111;28;20030;-82
2022/04/10 04:24:32;;;;;;;8.52;5.63;;;;;;;-2.76;100.00;93178.81;2097721;28;20023;-82
2022/04/10 04:25:34;;;;;;;10.95;6.30;;;;;;;-2.85;100.00;93179.69;2098483;28;20493;-81
2022/04/10 04:26:34;;;;;;;7.20;5.82;;;;;;;-2.85;100.00;93181.56;2089910;28;20016;-81
2022/04/10 04:27:46;;;;;;;13.02;6.63;;;;;;;-2.60;100.00;93182.25;2094746;28;20025;-80
2022/04/10 04:28:49;;;;;;;6.72;6.03;;;;;;;-2.76;100.00;93184.06;2108349;28;20035;-83
2022/04/10 04:29:50;;;;;;;7.50;6.05;;;;;;;-2.87;100.00;93184.47;2098459;28;20028;-84
2022/04/10 04:30:51;;;;;;;8.38;6.20;;;;;;;-2.91;100.00;93191.47;2098228;28;20025;-82
2022/04/10 04:31:52;;;;;;;7.10;6.35;;;;;;;-2.88;100.00;93185.56;2106441;28;20020;-84
2022/04/10 04:32:53;;;;;;;8.88;5.85;;;;;;;-2.85;100.00;93192.78;2106603;28;20492;-81
2022/04/10 04:34:00;;;;;;;9.82;6.43;;;;;;;-2.88;100.00;93188.19;2099761;28;20074;-81
2022/04/10 04:35:00;;;;;;;7.60;6.07;;;;;;;-2.80;100.00;93191.78;2106018;28;20454;-82
2022/04/10 04:36:02;;;;;;;9.88;6.57;;;;;;;-2.54;100.00;93179.09;2096959;28;20485;-82
2022/04/10 04:37:04;;;;;;;10.93;6.55;;;;;;;-2.51;100.00;93176.88;2098120;28;20085;-83
2022/04/10 04:38:05;;;;;;;10.90;6.78;;;;;;;-2.53;100.00;93193.69;2106594;28;20031;-81
2022/04/10 04:39:06;;;;;;;9.40;6.85;;;;;;;-2.60;100.00;93185.63;2106414;28;20024;-83
2022/04/10 04:40:09;;;;;;;8.57;6.20;;;;;;;-2.63;100.00;93196.78;2106484;28;20600;-83
2022/04/10 04:41:11;;;;;;;9.70;7.00;;;;;;;-2.65;100.00;93190.34;2106639;28;20111;-82
2022/04/10 04:42:11;;;;;;;9.45;6.00;;;;;;;-2.66;100.00;93186.19;2098129;28;20424;-81
2022/04/10 04:43:12;;;;;;;8.52;6.05;;;;;;;-2.71;100.00;93186.44;2097956;28;20032;-83
2022/04/10 04:44:13;;;;;;;7.82;6.60;;;;;;;-2.70;100.00;93191.31;2098094;28;20024;-81
2022/04/10 04:45:16;;;;;;;12.98;7.15;;;;;;;-2.60;100.00;93192.72;2098007;28;20020;-81
2022/04/10 04:46:17;;;;;;;6.32;5.72;;;;;;;-2.43;100.00;93199.56;2092499;28;20031;-82
2022/04/10 04:47:19;;;;;;;10.50;8.30;;;;;;;-2.05;100.00;93199.09;2096280;28;20052;-84
2022/04/10 04:48:20;;;;;;;13.20;7.18;;;;;;;-2.14;100.00;93193.25;2105425;28;20031;-83
2022/04/10 04:49:21;;;;;;;8.90;7.88;;;;;;;-2.25;100.00;93200.03;2104724;28;20028;-82